createdAt,value
2017-11-03T00:00:20.782Z,22.90
2017-11-03T00:02:48.326Z,23.87
2017-11-03T00:05:15.822Z,23.80
2017-11-03T00:07:44.102Z,23.60
2017-11-03T00:10:11.638Z,25.33
2017-11-03T00:12:39.147Z,24.40
2017-11-03T00:15:06.693Z,24.40
2017-11-03T00:17:34.202Z,24.53
2017-11-03T00:20:01.730Z,24.50
2017-11-03T00:22:29.222Z,23.00
2017-11-03T00:24:56.754Z,22.50
2017-11-03T00:27:24.258Z,24.43
2017-11-03T00:29:51.801Z,24.50
2017-11-03T00:32:19.298Z,23.43
2017-11-03T00:34:46.794Z,25.40
2017-11-03T00:37:14.326Z,25.50
2017-11-03T00:39:41.826Z,23.77
2017-11-03T00:42:09.356Z,24.40
2017-11-03T00:44:36.858Z,23.20
2017-11-03T00:47:04.382Z,23.90
2017-11-03T00:49:31.874Z,23.73
2017-11-03T00:52:00.176Z,24.60
2017-11-03T00:54:27.670Z,24.90
2017-11-03T00:56:55.199Z,26.03
2017-11-03T00:59:22.685Z,26.67
2017-11-03T01:01:50.209Z,25.17
2017-11-03T01:04:17.705Z,26.50
2017-11-03T01:06:45.254Z,26.97
2017-11-03T01:09:13.518Z,27.20
2017-11-03T01:11:41.007Z,23.87
2017-11-03T01:14:08.534Z,25.03
2017-11-03T01:16:36.054Z,26.40
2017-11-03T01:19:04.366Z,25.97
2017-11-03T01:21:32.626Z,27.90
2017-11-03T01:24:00.154Z,25.43
2017-11-03T01:26:27.662Z,25.40
2017-11-03T01:28:55.193Z,27.80
2017-11-03T01:31:22.689Z,25.93
2017-11-03T01:33:50.224Z,26.53
2017-11-03T01:36:17.722Z,30.20
2017-11-03T01:38:45.250Z,28.67
2017-11-03T01:41:13.511Z,23.80
2017-11-03T01:43:41.006Z,28.07
2017-11-03T01:46:08.533Z,27.87
2017-11-03T01:48:36.026Z,25.63
2017-11-03T01:51:03.559Z,27.97
2017-11-03T01:53:31.054Z,25.33
2017-11-03T01:55:58.581Z,27.60
2017-11-03T01:58:26.078Z,25.63
2017-11-03T02:00:53.623Z,26.50
2017-11-03T02:03:21.116Z,27.33
2017-11-03T02:05:48.610Z,27.70
2017-11-03T02:08:16.142Z,26.40
2017-11-03T02:10:43.634Z,25.90
2017-11-03T02:13:11.162Z,26.37
2017-11-03T02:15:39.437Z,24.23
2017-11-03T02:18:06.971Z,25.70
2017-11-03T02:20:34.462Z,27.57
2017-11-03T02:23:02.010Z,24.23
2017-11-03T02:25:29.510Z,22.73
2017-11-03T02:27:57.006Z,23.53
2017-11-03T02:30:25.304Z,26.57
2017-11-03T02:32:53.767Z,23.63
2017-11-03T02:35:21.298Z,22.97
2017-11-03T02:37:48.797Z,23.60
2017-11-03T02:40:16.327Z,25.90
2017-11-03T02:42:43.832Z,23.23
2017-11-03T02:45:25.121Z,24.73
2017-11-03T02:47:52.618Z,23.00
2017-11-03T02:50:20.142Z,22.90
2017-11-03T02:52:47.640Z,24.00
2017-11-03T02:55:15.326Z,24.97
2017-11-03T02:57:42.827Z,22.53
2017-11-03T03:00:10.321Z,25.27
2017-11-03T03:02:37.861Z,23.47
2017-11-03T03:05:05.354Z,23.23
2017-11-03T03:07:32.921Z,23.30
2017-11-03T03:10:01.178Z,23.20
2017-11-03T03:12:28.701Z,23.27
2017-11-03T03:14:56.212Z,24.10
2017-11-03T03:17:23.741Z,23.77
2017-11-03T03:19:51.233Z,26.10
2017-11-03T03:22:18.911Z,24.90
2017-11-03T03:24:46.401Z,24.70
2017-11-03T03:27:13.893Z,24.60
2017-11-03T03:29:41.418Z,26.93
2017-11-03T03:32:08.917Z,23.10
2017-11-03T03:34:36.446Z,25.50
2017-11-03T03:37:03.945Z,25.37
2017-11-03T03:39:31.478Z,24.47
2017-11-03T03:41:59.737Z,23.17
2017-11-03T03:44:27.270Z,23.17
2017-11-03T03:46:54.758Z,25.93
2017-11-03T03:49:22.286Z,26.90
2017-11-03T03:51:49.774Z,27.60
2017-11-03T03:54:17.302Z,26.40
2017-11-03T03:56:44.793Z,25.90
2017-11-03T03:59:12.288Z,25.40
2017-11-03T04:01:39.826Z,24.27
2017-11-03T04:04:08.081Z,24.50
2017-11-03T04:06:35.604Z,24.40
2017-11-03T04:09:03.102Z,24.97
2017-11-03T04:11:30.631Z,24.90
2017-11-03T04:13:58.119Z,23.23
2017-11-03T04:16:25.643Z,24.57
2017-11-03T04:18:53.138Z,24.37
2017-11-03T04:21:21.434Z,25.40
2017-11-03T04:23:49.703Z,25.13
2017-11-03T04:26:17.249Z,23.50
2017-11-03T04:28:44.740Z,23.70
2017-11-03T04:31:12.233Z,25.60
2017-11-03T04:33:40.530Z,24.60
2017-11-03T04:36:08.030Z,23.80
2017-11-03T04:38:35.558Z,26.50
2017-11-03T04:41:03.049Z,25.47
2017-11-03T04:43:30.589Z,26.33
2017-11-03T04:45:58.114Z,24.87
2017-11-03T04:48:25.654Z,25.37
2017-11-03T04:50:53.913Z,25.90
2017-11-03T04:53:21.406Z,24.90
2017-11-03T04:55:48.940Z,24.43
2017-11-03T04:58:16.430Z,25.60
2017-11-03T05:00:43.957Z,25.77
2017-11-03T05:03:11.445Z,23.33
2017-11-03T05:05:38.982Z,25.77
2017-11-03T05:08:06.479Z,25.20
2017-11-03T05:10:34.006Z,24.17
2017-11-03T05:13:01.494Z,24.23
2017-11-03T05:15:29.999Z,23.80
2017-11-03T05:17:57.530Z,25.50
2017-11-03T05:20:25.030Z,24.93
2017-11-03T05:22:53.353Z,26.33
2017-11-03T05:25:20.876Z,24.07
2017-11-03T05:27:48.461Z,24.17
2017-11-03T05:30:16.735Z,24.60
2017-11-03T05:32:45.284Z,24.50
2017-11-03T05:35:12.788Z,22.33
2017-11-03T05:37:40.369Z,24.57
2017-11-03T05:40:07.870Z,21.97
2017-11-03T05:42:35.414Z,23.47
2017-11-03T05:45:02.902Z,23.80
2017-11-03T05:47:31.162Z,23.30
2017-11-03T05:49:58.694Z,23.00
2017-11-03T05:52:26.189Z,23.53
2017-11-03T05:54:53.710Z,25.07
2017-11-03T05:57:21.974Z,24.90
2017-11-03T05:59:49.507Z,25.03
2017-11-03T06:02:16.998Z,25.80
2017-11-03T06:04:44.550Z,23.97
2017-11-03T06:07:12.040Z,24.57
2017-11-03T06:09:39.535Z,22.93
2017-11-03T06:12:07.062Z,23.10
2017-11-03T06:14:34.557Z,22.73
2017-11-03T06:17:02.099Z,24.03
2017-11-03T06:19:29.597Z,22.70
2017-11-03T06:21:57.129Z,24.73
2017-11-03T06:24:24.622Z,23.50
2017-11-03T06:26:52.149Z,22.63
2017-11-03T06:29:19.635Z,23.93
2017-11-03T06:31:47.170Z,24.87
2017-11-03T06:34:14.688Z,24.63
2017-11-03T06:36:42.318Z,25.70
2017-11-03T06:39:09.815Z,22.90
2017-11-03T06:41:38.070Z,24.37
2017-11-03T06:44:05.610Z,23.40
2017-11-03T06:46:33.103Z,20.87
2017-11-03T06:49:00.629Z,21.53
2017-11-03T06:51:28.127Z,24.03
2017-11-03T06:53:56.467Z,21.87
2017-11-03T06:56:24.725Z,24.80
2017-11-03T06:58:52.255Z,23.37
2017-11-03T07:01:19.746Z,23.00
2017-11-03T07:03:47.288Z,23.07
2017-11-03T07:06:15.546Z,23.60
2017-11-03T07:08:43.070Z,23.53
2017-11-03T07:11:10.577Z,23.57
2017-11-03T07:13:38.114Z,22.47
2017-11-03T07:16:05.672Z,24.47
2017-11-03T07:18:33.170Z,23.53
2017-11-03T07:21:00.701Z,24.20
2017-11-03T07:23:28.963Z,23.10
2017-11-03T07:25:56.497Z,20.40
2017-11-03T07:28:23.992Z,23.57
2017-11-03T07:30:51.518Z,25.30
2017-11-03T07:33:19.018Z,21.97
2017-11-03T07:35:46.573Z,22.93
2017-11-03T07:38:14.071Z,22.43
2017-11-03T07:40:41.569Z,23.60
2017-11-03T07:43:09.094Z,24.33
2017-11-03T07:45:36.584Z,21.60
2017-11-03T07:48:04.114Z,21.67
2017-11-03T07:50:31.642Z,23.57
2017-11-03T07:52:59.173Z,21.83
2017-11-03T07:55:26.665Z,21.20
2017-11-03T07:57:54.193Z,20.57
2017-11-03T08:00:21.689Z,23.47
2017-11-03T08:02:49.234Z,21.77
2017-11-03T08:05:17.498Z,20.57
2017-11-03T08:07:44.998Z,20.67
2017-11-03T08:10:13.296Z,21.67
2017-11-03T08:12:40.794Z,20.83
2017-11-03T08:15:08.326Z,20.50
2017-11-03T08:17:36.594Z,20.27
2017-11-03T08:20:04.125Z,20.60
2017-11-03T08:22:31.632Z,19.07
2017-11-03T08:24:59.161Z,18.97
2017-11-03T08:27:26.662Z,19.23
2017-11-03T08:29:54.190Z,19.20
2017-11-03T08:32:21.737Z,18.27
2017-11-03T08:34:50.012Z,18.27
2017-11-03T08:37:17.541Z,19.40
2017-11-03T08:39:45.042Z,19.53
2017-11-03T08:42:12.569Z,19.17
2017-11-03T08:44:40.074Z,19.67
2017-11-03T08:47:07.606Z,20.03
2017-11-03T08:49:35.113Z,19.17
2017-11-03T08:52:02.649Z,18.30
2017-11-03T08:54:30.177Z,18.60
2017-11-03T08:56:57.730Z,19.07
2017-11-03T08:59:25.225Z,17.83
2017-11-03T09:01:52.725Z,19.60
2017-11-03T09:04:21.036Z,17.07
2017-11-03T09:06:48.537Z,16.40
2017-11-03T09:09:16.078Z,15.27
2017-11-03T09:11:43.578Z,18.20
2017-11-03T09:14:11.109Z,19.47
2017-11-03T09:16:39.017Z,17.33
2017-11-03T09:19:06.558Z,18.50
2017-11-03T09:21:34.049Z,18.40
2017-11-03T09:24:01.602Z,18.67
2017-11-03T09:26:29.869Z,17.93
2017-11-03T09:28:57.367Z,18.57
2017-11-03T09:31:24.899Z,17.03
2017-11-03T09:33:52.406Z,17.07
2017-11-03T09:36:20.705Z,15.60
2017-11-03T09:38:48.206Z,15.37
2017-11-03T09:41:15.737Z,16.13
2017-11-03T09:43:44.006Z,16.60
2017-11-03T09:46:11.531Z,16.63
2017-11-03T09:48:39.031Z,15.90
2017-11-03T09:51:06.574Z,15.77
2017-11-03T09:53:34.073Z,15.30
2017-11-03T09:56:01.623Z,16.57
2017-11-03T09:58:29.287Z,16.00
2017-11-03T10:00:56.786Z,15.47
2017-11-03T10:03:24.305Z,15.50
2017-11-03T10:05:52.570Z,13.50
2017-11-03T10:08:20.103Z,16.37
2017-11-03T10:10:47.598Z,15.00
2017-11-03T10:13:15.140Z,16.70
2017-11-03T10:15:42.668Z,15.40
2017-11-03T10:18:10.965Z,14.43
2017-11-03T10:20:39.233Z,16.07
2017-11-03T10:23:06.785Z,14.80
2017-11-03T10:25:34.281Z,14.27
2017-11-03T10:28:01.773Z,15.40
2017-11-03T10:30:30.071Z,14.17
2017-11-03T10:32:58.329Z,14.00
2017-11-03T10:35:25.865Z,14.07
2017-11-03T10:37:53.365Z,15.00
2017-11-03T10:40:20.907Z,14.57
2017-11-03T10:42:48.401Z,14.47
2017-11-03T10:45:16.845Z,14.80
2017-11-03T10:47:45.110Z,13.63
2017-11-03T10:50:12.605Z,13.83
2017-11-03T10:52:40.898Z,14.50
2017-11-03T10:55:09.166Z,15.90
2017-11-03T10:57:36.700Z,14.87
2017-11-03T11:00:04.197Z,15.20
2017-11-03T11:02:31.765Z,15.30
2017-11-03T11:04:59.265Z,15.53
2017-11-03T11:07:26.813Z,15.53
2017-11-03T11:09:54.310Z,15.70
2017-11-03T11:12:22.634Z,14.77
2017-11-03T11:14:50.137Z,14.67
2017-11-03T11:17:17.635Z,15.50
2017-11-03T11:19:45.967Z,13.57
2017-11-03T11:22:13.470Z,14.57
2017-11-03T11:24:40.998Z,14.17
2017-11-03T11:27:08.494Z,15.87
2017-11-03T11:29:36.029Z,13.13
2017-11-03T11:32:03.568Z,14.07
2017-11-03T11:34:31.183Z,14.80
2017-11-03T11:36:58.681Z,13.83
2017-11-03T11:39:26.178Z,14.70
2017-11-03T11:41:53.801Z,15.30
2017-11-03T11:44:21.313Z,13.83
2017-11-03T11:46:48.862Z,13.57
2017-11-03T11:49:16.354Z,13.53
2017-11-03T11:51:43.883Z,15.53
2017-11-03T11:54:11.401Z,17.00
2017-11-03T11:56:38.933Z,16.30
2017-11-03T11:59:06.430Z,14.23
2017-11-03T12:01:33.982Z,15.97
2017-11-03T12:04:01.482Z,16.60
2017-11-03T12:06:28.987Z,15.17
2017-11-03T12:08:56.520Z,17.40
2017-11-03T12:11:24.018Z,16.57
2017-11-03T12:13:51.552Z,15.93
2017-11-03T12:16:19.049Z,15.70
2017-11-03T12:18:46.586Z,15.43
2017-11-03T12:21:14.089Z,15.37
2017-11-03T12:23:41.659Z,15.40
2017-11-03T12:26:09.186Z,14.30
2017-11-03T12:28:36.725Z,14.47
2017-11-03T12:31:04.222Z,15.30
2017-11-03T12:33:32.534Z,13.10
2017-11-03T12:36:00.035Z,13.17
2017-11-03T12:38:27.533Z,15.70
2017-11-03T12:40:55.062Z,13.60
2017-11-03T12:43:23.398Z,14.20
2017-11-03T12:45:50.949Z,14.40
2017-11-03T12:48:19.225Z,14.80
2017-11-03T12:50:46.760Z,14.67
2017-11-03T12:53:14.295Z,16.40
2017-11-03T12:55:41.845Z,15.73
2017-11-03T12:58:09.346Z,15.60
2017-11-03T13:00:36.890Z,15.80
2017-11-03T13:03:04.382Z,15.10
2017-11-03T13:05:31.893Z,16.50
2017-11-03T13:07:59.423Z,16.73
2017-11-03T13:10:26.921Z,16.00
2017-11-03T13:12:54.462Z,15.33
2017-11-03T13:15:21.960Z,15.67
2017-11-03T13:17:49.769Z,14.20
2017-11-03T13:20:17.274Z,15.63
2017-11-03T13:22:44.798Z,16.20
2017-11-03T13:25:13.082Z,17.40
2017-11-03T13:27:41.394Z,16.50
2017-11-03T13:30:08.902Z,16.33
2017-11-03T13:32:36.404Z,18.40
2017-11-03T13:35:04.697Z,16.63
2017-11-03T13:37:32.953Z,17.30
2017-11-03T13:40:00.481Z,16.70
2017-11-03T13:42:27.982Z,18.27
2017-11-03T13:44:55.531Z,18.00
2017-11-03T13:47:23.032Z,16.50
2017-11-03T13:49:50.533Z,17.50
2017-11-03T13:52:18.086Z,17.07
2017-11-03T13:54:45.583Z,17.70
2017-11-03T13:57:14.710Z,17.70
2017-11-03T13:59:42.210Z,18.17
2017-11-03T14:02:09.750Z,18.53
2017-11-03T14:04:38.010Z,17.67
2017-11-03T14:07:05.534Z,17.33
2017-11-03T14:09:33.034Z,18.60
2017-11-03T14:12:00.581Z,16.53
2017-11-03T14:14:28.082Z,18.50
2017-11-03T14:16:55.582Z,16.67
2017-11-03T14:19:23.123Z,17.23
2017-11-03T14:21:50.717Z,17.37
2017-11-03T14:24:19.386Z,18.50
2017-11-03T14:26:46.881Z,16.80
2017-11-03T14:29:14.419Z,16.23
2017-11-03T14:31:41.921Z,17.13
2017-11-03T14:34:09.445Z,17.23
2017-11-03T14:36:36.946Z,17.20
2017-11-03T14:39:04.490Z,15.30
2017-11-03T14:41:31.990Z,14.20
2017-11-03T14:43:59.487Z,15.80
2017-11-03T14:46:27.022Z,15.30
2017-11-03T14:48:54.524Z,15.97
2017-11-03T14:51:22.065Z,14.63
2017-11-03T14:53:49.566Z,14.43
2017-11-03T14:56:17.104Z,11.53
2017-11-03T14:58:44.598Z,12.30
2017-11-03T15:01:12.129Z,13.83
2017-11-03T15:03:40.783Z,16.93
2017-11-03T15:06:08.310Z,15.27
2017-11-03T15:08:35.810Z,16.50
2017-11-03T15:11:03.342Z,16.63
2017-11-03T15:13:30.837Z,15.73
2017-11-03T15:15:58.366Z,14.53
2017-11-03T15:18:26.626Z,14.93
2017-11-03T15:20:54.130Z,13.93
2017-11-03T15:23:21.661Z,14.13
2017-11-03T15:25:49.158Z,10.77
2017-11-03T15:28:16.694Z,7.43
2017-11-03T15:30:44.181Z,7.90
2017-11-03T15:33:11.715Z,5.70
2017-11-03T15:35:39.202Z,6.13
2017-11-03T15:38:06.725Z,5.90
2017-11-03T15:40:34.980Z,6.70
2017-11-03T15:43:02.502Z,5.90
2017-11-03T15:45:30.027Z,6.23
2017-11-03T15:47:57.518Z,5.43
2017-11-03T15:50:25.805Z,5.30
2017-11-03T15:52:54.061Z,5.43
2017-11-03T15:55:21.606Z,5.60
2017-11-03T15:57:49.097Z,5.47
2017-11-03T16:00:16.590Z,5.30
2017-11-03T16:02:44.111Z,5.73
2017-11-03T16:05:11.609Z,6.50
2017-11-03T16:07:39.904Z,5.50
2017-11-03T16:10:07.394Z,5.80
2017-11-03T16:12:34.918Z,5.50
2017-11-03T16:15:02.414Z,5.87
2017-11-03T16:17:29.933Z,6.80
2017-11-03T16:19:57.430Z,6.07
2017-11-03T16:22:24.949Z,6.70
2017-11-03T16:24:52.471Z,7.40
2017-11-03T16:27:20.011Z,8.27
2017-11-03T16:29:48.261Z,8.57
2017-11-03T16:32:15.754Z,8.10
2017-11-03T16:34:43.288Z,10.27
2017-11-03T16:37:10.786Z,13.83
2017-11-03T16:39:38.313Z,15.00
2017-11-03T16:42:05.810Z,15.77
2017-11-03T16:44:33.330Z,16.57
2017-11-03T16:47:01.594Z,18.07
2017-11-03T16:49:29.118Z,19.27
2017-11-03T16:51:56.609Z,18.97
2017-11-03T16:54:24.153Z,20.57
2017-11-03T16:56:51.646Z,21.23
2017-11-03T16:59:19.134Z,20.57
2017-11-03T17:01:46.657Z,21.63
2017-11-03T17:04:14.149Z,20.70
2017-11-03T17:06:41.678Z,18.70
2017-11-03T17:09:09.165Z,23.77
2017-11-03T17:11:37.455Z,21.20
2017-11-03T17:14:05.718Z,21.57
2017-11-03T17:16:33.249Z,21.03
2017-11-03T17:19:00.762Z,21.70
2017-11-03T17:21:28.290Z,23.13
2017-11-03T17:23:55.794Z,22.00
2017-11-03T17:26:23.330Z,21.50
2017-11-03T17:28:50.813Z,21.60
2017-11-03T17:31:18.322Z,24.73
2017-11-03T17:33:45.845Z,22.83
2017-11-03T17:36:13.337Z,24.77
2017-11-03T17:38:40.862Z,23.73
2017-11-03T17:41:09.122Z,21.97
2017-11-03T17:43:36.662Z,22.93
2017-11-03T17:46:04.174Z,24.40
2017-11-03T17:48:31.693Z,24.03
2017-11-03T17:50:59.186Z,25.27
2017-11-03T17:53:26.710Z,25.90
2017-11-03T17:55:54.967Z,26.20
2017-11-03T17:58:22.490Z,23.30
2017-11-03T18:00:49.986Z,24.40
2017-11-03T18:03:17.522Z,26.70
2017-11-03T18:05:45.026Z,26.43
2017-11-03T18:08:13.329Z,27.30
2017-11-03T18:10:40.849Z,26.60
2017-11-03T18:13:08.378Z,27.03
2017-11-03T18:15:35.906Z,28.83
2017-11-03T18:18:03.398Z,26.43
2017-11-03T18:20:30.953Z,29.27
2017-11-03T18:22:58.458Z,28.87
2017-11-03T18:25:26.002Z,28.97
2017-11-03T18:27:53.488Z,29.60
2017-11-03T18:30:20.981Z,31.37
2017-11-03T18:32:48.529Z,30.33
2017-11-03T18:35:16.021Z,28.40
2017-11-03T18:37:43.544Z,31.17
2017-11-03T18:40:11.038Z,31.63
2017-11-03T18:42:38.563Z,34.30
2017-11-03T18:45:06.822Z,31.97
2017-11-03T18:47:34.354Z,37.07
2017-11-03T18:50:01.850Z,41.00
2017-11-03T18:52:29.385Z,39.40
2017-11-03T18:54:56.882Z,40.57
2017-11-03T18:57:24.370Z,37.40
2017-11-03T18:59:51.899Z,37.60
2017-11-03T19:02:20.313Z,40.13
2017-11-03T19:04:47.842Z,38.57
2017-11-03T19:07:16.102Z,31.53
2017-11-03T19:09:43.625Z,35.73
2017-11-03T19:12:11.122Z,32.50
2017-11-03T19:14:38.661Z,33.47
2017-11-03T19:17:06.153Z,37.03
2017-11-03T19:19:33.645Z,34.20
2017-11-03T19:22:01.172Z,33.23
2017-11-03T19:24:30.420Z,32.20
2017-11-03T19:26:57.982Z,34.60
2017-11-03T19:29:25.490Z,32.67
2017-11-03T19:31:53.174Z,36.13
2017-11-03T19:34:20.670Z,39.07
2017-11-03T19:36:48.185Z,39.20
2017-11-03T19:39:15.713Z,39.40
2017-11-03T19:41:44.021Z,36.47
2017-11-03T19:44:11.612Z,36.73
2017-11-03T19:46:39.747Z,37.77
2017-11-03T19:49:07.317Z,38.77
2017-11-03T19:51:34.811Z,37.50
2017-11-03T19:54:03.118Z,35.50
2017-11-03T19:56:30.609Z,37.67
2017-11-03T19:58:58.939Z,35.03
2017-11-03T20:01:26.434Z,36.40
2017-11-03T20:03:54.741Z,33.47
2017-11-03T20:06:22.237Z,33.50
2017-11-03T20:08:49.729Z,35.60
2017-11-03T20:11:17.283Z,34.00
2017-11-03T20:13:44.992Z,35.90
2017-11-03T20:16:13.303Z,33.93
2017-11-03T20:18:41.558Z,33.20
2017-11-03T20:21:09.089Z,34.30
2017-11-03T20:23:36.593Z,33.83
2017-11-03T20:26:04.122Z,35.87
2017-11-03T20:28:32.387Z,36.00
2017-11-03T20:30:59.936Z,36.37
2017-11-03T20:33:27.442Z,34.13
2017-11-03T20:35:54.974Z,36.80
2017-11-03T20:38:22.470Z,40.20
2017-11-03T20:40:50.025Z,36.33
2017-11-03T20:43:17.522Z,37.90
2017-11-03T20:45:45.066Z,37.00
2017-11-03T20:48:12.570Z,42.30
2017-11-03T20:50:40.862Z,40.43
2017-11-03T20:53:08.385Z,41.23
2017-11-03T20:55:35.886Z,37.30
2017-11-03T20:58:03.462Z,42.33
2017-11-03T21:00:30.958Z,39.63
2017-11-03T21:02:59.254Z,44.90
2017-11-03T21:05:27.514Z,42.10
2017-11-03T21:07:55.050Z,41.30
2017-11-03T21:10:22.879Z,39.13
2017-11-03T21:12:51.206Z,34.83
2017-11-03T21:15:19.482Z,42.83
2017-11-03T21:17:47.025Z,42.67
2017-11-03T21:20:14.519Z,43.07
2017-11-03T21:22:42.014Z,44.83
2017-11-03T21:25:09.554Z,45.57
2017-11-03T21:27:37.814Z,44.57
2017-11-03T21:30:05.342Z,40.67
2017-11-03T21:32:32.843Z,44.40
2017-11-03T21:35:00.379Z,43.00
2017-11-03T21:37:27.882Z,46.10
2017-11-03T21:39:55.421Z,42.10
2017-11-03T21:42:23.689Z,38.57
2017-11-03T21:44:51.234Z,40.30
2017-11-03T21:47:18.741Z,38.60
2017-11-03T21:49:46.239Z,39.20
2017-11-03T21:52:13.762Z,36.47
2017-11-03T21:54:41.288Z,37.07
2017-11-03T21:57:08.823Z,41.60
2017-11-03T21:59:36.317Z,41.17
2017-11-03T22:02:04.623Z,42.30
2017-11-03T22:04:32.128Z,40.20
2017-11-03T22:06:59.654Z,40.77
2017-11-03T22:09:27.918Z,44.17
2017-11-03T22:11:55.442Z,36.80
2017-11-03T22:14:22.948Z,34.70
2017-11-03T22:16:50.498Z,40.50
2017-11-03T22:19:17.992Z,42.83
2017-11-03T22:21:45.487Z,41.77
2017-11-03T22:24:13.017Z,38.60
2017-11-03T22:26:41.274Z,42.13
2017-11-03T22:29:08.810Z,43.23
2017-11-03T22:31:36.306Z,43.70
2017-11-03T22:34:04.606Z,48.57
2017-11-03T22:36:32.874Z,44.63
2017-11-03T22:39:00.426Z,48.20
2017-11-03T22:41:27.917Z,48.10
2017-11-03T22:43:55.443Z,45.03
2017-11-03T22:46:22.997Z,43.50
2017-11-03T22:48:50.494Z,49.00
2017-11-03T22:51:18.027Z,49.00
2017-11-03T22:53:45.521Z,45.13
2017-11-03T22:56:13.058Z,45.27
2017-11-03T22:58:41.322Z,43.23
2017-11-03T23:01:08.866Z,45.97
2017-11-03T23:03:36.367Z,47.07
2017-11-03T23:06:03.922Z,49.00
2017-11-03T23:08:31.414Z,47.17
2017-11-03T23:10:58.921Z,43.03
2017-11-03T23:13:27.221Z,42.33
2017-11-03T23:15:54.717Z,40.53
2017-11-03T23:18:22.250Z,39.13
2017-11-03T23:20:50.518Z,42.10
2017-11-03T23:23:18.045Z,41.63
2017-11-03T23:25:45.550Z,40.80
2017-11-03T23:28:13.078Z,44.77
2017-11-03T23:30:40.569Z,42.77
2017-11-03T23:33:08.109Z,38.00
2017-11-03T23:35:36.365Z,36.47
2017-11-03T23:38:03.875Z,35.30
2017-11-03T23:40:31.402Z,32.00
2017-11-03T23:42:58.894Z,30.17
2017-11-03T23:45:27.197Z,29.77
2017-11-03T23:47:55.458Z,31.10
2017-11-03T23:50:23.010Z,28.63
2017-11-03T23:52:50.553Z,26.67
2017-11-03T23:55:18.098Z,26.57
2017-11-03T23:57:45.594Z,26.30
